sensor_id;sensor_type;location;lat;lon;timestamp;P1;durP1;ratioP1;P2;durP2;ratioP2
6372;SDS011;3219;51.362;7.074;2023-04-25T00:00:00;8.80;;;4.35;;
6372;SDS011;3219;51.362;7.074;2023-04-25T00:02:27;12.82;;;3.88;;
6372;SDS011;3219;51.362;7.074;2023-04-25T00:04:53;10.10;;;4.80;;
6372;SDS011;3219;51.362;7.074;2023-04-25T00:07:23;10.75;;;4.35;;
6372;SDS011;3219;51.362;7.074;2023-04-25T00:09:51;10.50;;;3.53;;
6372;SDS011;3219;51.362;7.074;2023-04-25T00:12:19;12.18;;;4.57;;
6372;SDS011;3219;51.362;7.074;2023-04-25T00:14:47;11.57;;;3.92;;
6372;SDS011;3219;51.362;7.074;2023-04-25T00:17:14;9.27;;;3.63;;
6372;SDS011;3219;51.362;7.074;2023-04-25T00:19:41;13.43;;;4.07;;
6372;SDS011;3219;51.362;7.074;2023-04-25T00:22:09;9.55;;;3.45;;
6372;SDS011;3219;51.362;7.074;2023-04-25T00:24:36;7.80;;;3.92;;
6372;SDS011;3219;51.362;7.074;2023-04-25T00:27:03;9.38;;;4.15;;
6372;SDS011;3219;51.362;7.074;2023-04-25T00:29:31;9.98;;;3.38;;
6372;SDS011;3219;51.362;7.074;2023-04-25T00:31:58;6.03;;;3.40;;
6372;SDS011;3219;51.362;7.074;2023-04-25T00:34:25;11.88;;;2.97;;
6372;SDS011;3219;51.362;7.074;2023-04-25T00:36:52;9.73;;;4.13;;
6372;SDS011;3219;51.362;7.074;2023-04-25T00:39:18;10.35;;;4.57;;
6372;SDS011;3219;51.362;7.074;2023-04-25T00:41:45;11.90;;;3.55;;
6372;SDS011;3219;51.362;7.074;2023-04-25T00:44:12;7.72;;;4.10;;
6372;SDS011;3219;51.362;7.074;2023-04-25T00:46:43;10.43;;;4.88;;
6372;SDS011;3219;51.362;7.074;2023-04-25T00:49:10;11.18;;;4.20;;
6372;SDS011;3219;51.362;7.074;2023-04-25T00:51:40;8.40;;;3.25;;
6372;SDS011;3219;51.362;7.074;2023-04-25T00:54:09;8.07;;;4.55;;
6372;SDS011;3219;51.362;7.074;2023-04-25T00:56:36;9.35;;;5.32;;
6372;SDS011;3219;51.362;7.074;2023-04-25T00:59:03;9.65;;;3.95;;
6372;SDS011;3219;51.362;7.074;2023-04-25T01:01:30;9.43;;;3.88;;
6372;SDS011;3219;51.362;7.074;2023-04-25T01:03:58;6.88;;;3.53;;
6372;SDS011;3219;51.362;7.074;2023-04-25T01:06:25;13.27;;;4.20;;
6372;SDS011;3219;51.362;7.074;2023-04-25T01:08:53;10.90;;;4.22;;
6372;SDS011;3219;51.362;7.074;2023-04-25T01:11:20;9.38;;;3.65;;
6372;SDS011;3219;51.362;7.074;2023-04-25T01:13:46;7.47;;;4.72;;
6372;SDS011;3219;51.362;7.074;2023-04-25T01:16:13;7.60;;;3.78;;
6372;SDS011;3219;51.362;7.074;2023-04-25T01:18:40;11.35;;;3.85;;
6372;SDS011;3219;51.362;7.074;2023-04-25T01:21:10;9.02;;;5.38;;
6372;SDS011;3219;51.362;7.074;2023-04-25T01:23:38;8.27;;;4.40;;
6372;SDS011;3219;51.362;7.074;2023-04-25T01:26:06;11.32;;;4.97;;
6372;SDS011;3219;51.362;7.074;2023-04-25T01:28:34;8.77;;;4.05;;
6372;SDS011;3219;51.362;7.074;2023-04-25T01:31:01;12.45;;;4.18;;
6372;SDS011;3219;51.362;7.074;2023-04-25T01:33:28;11.20;;;4.40;;
6372;SDS011;3219;51.362;7.074;2023-04-25T01:35:56;7.53;;;4.35;;
6372;SDS011;3219;51.362;7.074;2023-04-25T01:38:24;9.13;;;4.43;;
6372;SDS011;3219;51.362;7.074;2023-04-25T01:40:51;7.20;;;3.60;;
6372;SDS011;3219;51.362;7.074;2023-04-25T01:43:18;7.82;;;3.65;;
6372;SDS011;3219;51.362;7.074;2023-04-25T01:45:44;9.00;;;4.38;;
6372;SDS011;3219;51.362;7.074;2023-04-25T01:48:12;9.27;;;3.67;;
6372;SDS011;3219;51.362;7.074;2023-04-25T01:50:40;9.88;;;4.13;;
6372;SDS011;3219;51.362;7.074;2023-04-25T01:53:07;7.00;;;3.88;;
6372;SDS011;3219;51.362;7.074;2023-04-25T01:55:37;7.85;;;3.95;;
6372;SDS011;3219;51.362;7.074;2023-04-25T01:58:04;11.82;;;5.45;;
6372;SDS011;3219;51.362;7.074;2023-04-25T02:00:34;8.18;;;5.13;;
6372;SDS011;3219;51.362;7.074;2023-04-25T02:03:03;9.60;;;4.57;;
6372;SDS011;3219;51.362;7.074;2023-04-25T02:05:33;9.93;;;4.55;;
6372;SDS011;3219;51.362;7.074;2023-04-25T02:08:00;8.50;;;3.80;;
6372;SDS011;3219;51.362;7.074;2023-04-25T02:10:28;8.95;;;4.55;;
6372;SDS011;3219;51.362;7.074;2023-04-25T02:12:56;12.23;;;4.88;;
6372;SDS011;3219;51.362;7.074;2023-04-25T02:15:23;5.78;;;4.47;;
6372;SDS011;3219;51.362;7.074;2023-04-25T02:17:50;11.52;;;5.68;;
6372;SDS011;3219;51.362;7.074;2023-04-25T02:20:18;9.43;;;4.82;;
6372;SDS011;3219;51.362;7.074;2023-04-25T02:22:46;11.75;;;5.53;;
6372;SDS011;3219;51.362;7.074;2023-04-25T02:25:13;7.70;;;4.18;;
6372;SDS011;3219;51.362;7.074;2023-04-25T02:27:41;10.60;;;4.35;;
6372;SDS011;3219;51.362;7.074;2023-04-25T02:30:09;9.55;;;4.63;;
6372;SDS011;3219;51.362;7.074;2023-04-25T02:32:36;8.25;;;3.78;;
6372;SDS011;3219;51.362;7.074;2023-04-25T02:35:04;9.40;;;3.40;;
6372;SDS011;3219;51.362;7.074;2023-04-25T02:37:31;6.88;;;4.57;;
6372;SDS011;3219;51.362;7.074;2023-04-25T02:39:58;6.47;;;4.80;;
6372;SDS011;3219;51.362;7.074;2023-04-25T02:42:25;7.07;;;4.35;;
6372;SDS011;3219;51.362;7.074;2023-04-25T02:44:52;7.32;;;3.85;;
6372;SDS011;3219;51.362;7.074;2023-04-25T02:47:20;6.70;;;4.57;;
6372;SDS011;3219;51.362;7.074;2023-04-25T02:49:47;8.85;;;5.03;;
6372;SDS011;3219;51.362;7.074;2023-04-25T02:52:13;6.57;;;3.67;;
6372;SDS011;3219;51.362;7.074;2023-04-25T02:54:40;8.00;;;4.18;;
6372;SDS011;3219;51.362;7.074;2023-04-25T02:57:07;9.27;;;4.65;;
6372;SDS011;3219;51.362;7.074;2023-04-25T02:59:34;10.77;;;5.97;;
6372;SDS011;3219;51.362;7.074;2023-04-25T03:02:01;8.70;;;4.47;;
6372;SDS011;3219;51.362;7.074;2023-04-25T03:04:29;8.15;;;4.30;;
6372;SDS011;3219;51.362;7.074;2023-04-25T03:06:56;11.82;;;6.25;;
6372;SDS011;3219;51.362;7.074;2023-04-25T03:09:23;9.68;;;6.00;;
6372;SDS011;3219;51.362;7.074;2023-04-25T03:11:50;12.57;;;6.35;;
6372;SDS011;3219;51.362;7.074;2023-04-25T03:14:16;14.00;;;5.38;;
6372;SDS011;3219;51.362;7.074;2023-04-25T03:16:43;12.02;;;4.80;;
6372;SDS011;3219;51.362;7.074;2023-04-25T03:19:10;9.38;;;4.78;;
6372;SDS011;3219;51.362;7.074;2023-04-25T03:21:38;10.95;;;5.55;;
6372;SDS011;3219;51.362;7.074;2023-04-25T03:24:04;11.63;;;5.15;;
6372;SDS011;3219;51.362;7.074;2023-04-25T03:26:31;12.45;;;6.40;;
6372;SDS011;3219;51.362;7.074;2023-04-25T03:28:58;11.63;;;5.40;;
6372;SDS011;3219;51.362;7.074;2023-04-25T03:31:25;10.70;;;6.20;;
6372;SDS011;3219;51.362;7.074;2023-04-25T03:33:52;11.52;;;6.40;;
6372;SDS011;3219;51.362;7.074;2023-04-25T03:36:18;13.68;;;6.60;;
6372;SDS011;3219;51.362;7.074;2023-04-25T03:38:46;14.43;;;6.63;;
6372;SDS011;3219;51.362;7.074;2023-04-25T03:41:13;12.75;;;5.03;;
6372;SDS011;3219;51.362;7.074;2023-04-25T03:43:40;12.15;;;5.60;;
6372;SDS011;3219;51.362;7.074;2023-04-25T03:46:07;10.20;;;6.43;;
6372;SDS011;3219;51.362;7.074;2023-04-25T03:48:34;10.77;;;5.63;;
6372;SDS011;3219;51.362;7.074;2023-04-25T03:51:01;12.48;;;7.35;;
6372;SDS011;3219;51.362;7.074;2023-04-25T03:53:27;11.68;;;6.85;;
6372;SDS011;3219;51.362;7.074;2023-04-25T03:55:55;12.95;;;6.20;;
6372;SDS011;3219;51.362;7.074;2023-04-25T03:58:22;12.70;;;6.80;;
6372;SDS011;3219;51.362;7.074;2023-04-25T04:00:49;14.50;;;5.72;;
6372;SDS011;3219;51.362;7.074;2023-04-25T04:03:16;13.13;;;6.38;;
6372;SDS011;3219;51.362;7.074;2023-04-25T04:05:42;11.52;;;6.00;;
6372;SDS011;3219;51.362;7.074;2023-04-25T04:08:10;11.77;;;5.90;;
6372;SDS011;3219;51.362;7.074;2023-04-25T04:10:36;12.90;;;6.50;;
6372;SDS011;3219;51.362;7.074;2023-04-25T04:13:04;15.90;;;7.47;;
6372;SDS011;3219;51.362;7.074;2023-04-25T04:15:31;15.88;;;6.47;;
6372;SDS011;3219;51.362;7.074;2023-04-25T04:17:58;11.25;;;5.93;;
6372;SDS011;3219;51.362;7.074;2023-04-25T04:20:27;11.05;;;5.57;;
6372;SDS011;3219;51.362;7.074;2023-04-25T04:22:55;10.90;;;5.82;;
6372;SDS011;3219;51.362;7.074;2023-04-25T04:25:21;12.25;;;5.35;;
6372;SDS011;3219;51.362;7.074;2023-04-25T04:27:49;10.05;;;5.60;;
6372;SDS011;3219;51.362;7.074;2023-04-25T04:30:20;10.65;;;5.15;;
6372;SDS011;3219;51.362;7.074;2023-04-25T04:32:48;13.35;;;5.53;;
6372;SDS011;3219;51.362;7.074;2023-04-25T04:35:15;13.32;;;5.28;;
6372;SDS011;3219;51.362;7.074;2023-04-25T04:37:42;14.48;;;6.10;;
6372;SDS011;3219;51.362;7.074;2023-04-25T04:40:10;14.07;;;5.97;;
6372;SDS011;3219;51.362;7.074;2023-04-25T04:42:40;14.05;;;6.47;;
6372;SDS011;3219;51.362;7.074;2023-04-25T04:45:07;12.60;;;5.72;;
6372;SDS011;3219;51.362;7.074;2023-04-25T04:47:36;13.25;;;6.50;;
6372;SDS011;3219;51.362;7.074;2023-04-25T04:52:33;14.10;;;6.00;;
6372;SDS011;3219;51.362;7.074;2023-04-25T04:55:00;12.85;;;6.18;;
6372;SDS011;3219;51.362;7.074;2023-04-25T04:57:27;14.77;;;5.90;;
6372;SDS011;3219;51.362;7.074;2023-04-25T04:59:54;18.27;;;7.93;;
6372;SDS011;3219;51.362;7.074;2023-04-25T05:02:20;13.75;;;6.78;;
6372;SDS011;3219;51.362;7.074;2023-04-25T05:04:48;12.90;;;6.40;;
6372;SDS011;3219;51.362;7.074;2023-04-25T05:07:16;13.70;;;6.38;;
6372;SDS011;3219;51.362;7.074;2023-04-25T05:09:43;13.30;;;6.53;;
6372;SDS011;3219;51.362;7.074;2023-04-25T05:12:10;13.23;;;6.43;;
6372;SDS011;3219;51.362;7.074;2023-04-25T05:14:36;15.90;;;8.10;;
6372;SDS011;3219;51.362;7.074;2023-04-25T05:17:03;11.48;;;6.32;;
6372;SDS011;3219;51.362;7.074;2023-04-25T05:19:33;14.95;;;6.13;;
6372;SDS011;3219;51.362;7.074;2023-04-25T05:22:01;12.07;;;7.20;;
6372;SDS011;3219;51.362;7.074;2023-04-25T05:24:28;20.15;;;7.35;;
6372;SDS011;3219;51.362;7.074;2023-04-25T05:26:55;12.57;;;5.68;;
6372;SDS011;3219;51.362;7.074;2023-04-25T05:29:22;9.10;;;5.68;;
6372;SDS011;3219;51.362;7.074;2023-04-25T05:31:49;15.48;;;5.53;;
6372;SDS011;3219;51.362;7.074;2023-04-25T05:34:16;12.52;;;6.43;;
6372;SDS011;3219;51.362;7.074;2023-04-25T05:36:42;16.05;;;5.88;;
6372;SDS011;3219;51.362;7.074;2023-04-25T05:39:10;9.70;;;5.10;;
6372;SDS011;3219;51.362;7.074;2023-04-25T05:41:37;10.70;;;4.60;;
6372;SDS011;3219;51.362;7.074;2023-04-25T05:44:04;13.68;;;5.15;;
6372;SDS011;3219;51.362;7.074;2023-04-25T05:46:31;14.70;;;4.88;;
6372;SDS011;3219;51.362;7.074;2023-04-25T05:48:58;13.95;;;4.95;;
6372;SDS011;3219;51.362;7.074;2023-04-25T05:51:25;11.18;;;5.43;;
6372;SDS011;3219;51.362;7.074;2023-04-25T05:53:52;12.05;;;4.97;;
6372;SDS011;3219;51.362;7.074;2023-04-25T05:56:20;9.38;;;5.03;;
6372;SDS011;3219;51.362;7.074;2023-04-25T05:58:47;14.45;;;4.57;;
6372;SDS011;3219;51.362;7.074;2023-04-25T06:01:14;9.40;;;4.43;;
6372;SDS011;3219;51.362;7.074;2023-04-25T06:03:40;12.68;;;5.05;;
6372;SDS011;3219;51.362;7.074;2023-04-25T06:06:08;12.40;;;4.95;;
6372;SDS011;3219;51.362;7.074;2023-04-25T06:08:35;11.90;;;5.28;;
6372;SDS011;3219;51.362;7.074;2023-04-25T06:11:02;11.25;;;3.72;;
6372;SDS011;3219;51.362;7.074;2023-04-25T06:13:30;11.27;;;4.70;;
6372;SDS011;3219;51.362;7.074;2023-04-25T06:15:57;11.75;;;6.13;;
6372;SDS011;3219;51.362;7.074;2023-04-25T06:18:24;11.48;;;4.78;;
6372;SDS011;3219;51.362;7.074;2023-04-25T06:20:51;11.05;;;5.40;;
6372;SDS011;3219;51.362;7.074;2023-04-25T06:23:17;14.02;;;4.22;;
6372;SDS011;3219;51.362;7.074;2023-04-25T06:25:44;15.10;;;4.78;;
6372;SDS011;3219;51.362;7.074;2023-04-25T06:28:11;14.52;;;5.47;;
6372;SDS011;3219;51.362;7.074;2023-04-25T06:30:39;14.13;;;4.65;;
6372;SDS011;3219;51.362;7.074;2023-04-25T06:33:06;13.23;;;4.68;;
6372;SDS011;3219;51.362;7.074;2023-04-25T06:35:33;9.48;;;4.38;;
6372;SDS011;3219;51.362;7.074;2023-04-25T06:38:00;12.00;;;4.00;;
6372;SDS011;3219;51.362;7.074;2023-04-25T06:40:27;9.18;;;3.83;;
6372;SDS011;3219;51.362;7.074;2023-04-25T06:42:53;10.15;;;3.22;;
6372;SDS011;3219;51.362;7.074;2023-04-25T06:45:20;13.07;;;3.90;;
6372;SDS011;3219;51.362;7.074;2023-04-25T06:47:48;10.68;;;3.28;;
6372;SDS011;3219;51.362;7.074;2023-04-25T06:50:15;11.73;;;2.90;;
6372;SDS011;3219;51.362;7.074;2023-04-25T06:52:42;8.30;;;3.55;;
6372;SDS011;3219;51.362;7.074;2023-04-25T06:55:09;12.13;;;3.38;;
6372;SDS011;3219;51.362;7.074;2023-04-25T06:57:35;7.15;;;2.45;;
6372;SDS011;3219;51.362;7.074;2023-04-25T07:00:02;6.43;;;2.30;;
6372;SDS011;3219;51.362;7.074;2023-04-25T07:02:33;6.53;;;2.47;;
6372;SDS011;3219;51.362;7.074;2023-04-25T07:05:02;11.50;;;3.70;;
6372;SDS011;3219;51.362;7.074;2023-04-25T07:07:29;7.45;;;2.65;;
6372;SDS011;3219;51.362;7.074;2023-04-25T07:09:55;7.70;;;3.25;;
6372;SDS011;3219;51.362;7.074;2023-04-25T07:12:22;9.63;;;3.00;;
6372;SDS011;3219;51.362;7.074;2023-04-25T07:14:49;8.93;;;3.35;;
6372;SDS011;3219;51.362;7.074;2023-04-25T07:17:16;7.65;;;3.15;;
6372;SDS011;3219;51.362;7.074;2023-04-25T07:19:42;7.97;;;3.47;;
6372;SDS011;3219;51.362;7.074;2023-04-25T07:22:11;9.63;;;4.18;;
6372;SDS011;3219;51.362;7.074;2023-04-25T07:24:37;7.25;;;2.70;;
6372;SDS011;3219;51.362;7.074;2023-04-25T07:27:05;7.85;;;3.80;;
6372;SDS011;3219;51.362;7.074;2023-04-25T07:29:31;9.23;;;3.35;;
6372;SDS011;3219;51.362;7.074;2023-04-25T07:32:02;9.60;;;3.17;;
6372;SDS011;3219;51.362;7.074;2023-04-25T07:34:28;9.48;;;4.50;;
6372;SDS011;3219;51.362;7.074;2023-04-25T07:36:55;10.43;;;3.40;;
6372;SDS011;3219;51.362;7.074;2023-04-25T07:39:25;12.95;;;3.60;;
6372;SDS011;3219;51.362;7.074;2023-04-25T07:41:52;11.63;;;3.38;;
6372;SDS011;3219;51.362;7.074;2023-04-25T07:44:19;7.18;;;2.95;;
6372;SDS011;3219;51.362;7.074;2023-04-25T07:46:46;6.85;;;3.45;;
6372;SDS011;3219;51.362;7.074;2023-04-25T07:49:13;8.32;;;3.28;;
6372;SDS011;3219;51.362;7.074;2023-04-25T07:51:39;8.27;;;4.05;;
6372;SDS011;3219;51.362;7.074;2023-04-25T07:54:08;8.65;;;4.13;;
6372;SDS011;3219;51.362;7.074;2023-04-25T07:56:36;5.82;;;3.13;;
6372;SDS011;3219;51.362;7.074;2023-04-25T07:59:03;7.75;;;3.40;;
6372;SDS011;3219;51.362;7.074;2023-04-25T08:01:30;11.73;;;2.80;;
6372;SDS011;3219;51.362;7.074;2023-04-25T08:03:57;7.90;;;2.60;;
6372;SDS011;3219;51.362;7.074;2023-04-25T08:06:23;6.03;;;1.92;;
6372;SDS011;3219;51.362;7.074;2023-04-25T08:08:50;5.60;;;2.67;;
6372;SDS011;3219;51.362;7.074;2023-04-25T08:11:17;7.03;;;2.33;;
6372;SDS011;3219;51.362;7.074;2023-04-25T08:13:45;7.28;;;2.90;;
6372;SDS011;3219;51.362;7.074;2023-04-25T08:16:12;6.15;;;2.10;;
6372;SDS011;3219;51.362;7.074;2023-04-25T08:18:39;9.73;;;2.70;;
6372;SDS011;3219;51.362;7.074;2023-04-25T08:21:05;6.82;;;1.90;;
6372;SDS011;3219;51.362;7.074;2023-04-25T08:23:33;10.60;;;2.08;;
6372;SDS011;3219;51.362;7.074;2023-04-25T08:26:00;9.38;;;2.85;;
6372;SDS011;3219;51.362;7.074;2023-04-25T08:28:28;5.22;;;2.03;;
6372;SDS011;3219;51.362;7.074;2023-04-25T08:30:56;5.03;;;2.33;;
6372;SDS011;3219;51.362;7.074;2023-04-25T08:33:23;5.60;;;1.73;;
6372;SDS011;3219;51.362;7.074;2023-04-25T08:35:50;6.57;;;2.33;;
6372;SDS011;3219;51.362;7.074;2023-04-25T08:38:17;7.20;;;2.30;;
6372;SDS011;3219;51.362;7.074;2023-04-25T08:40:45;9.75;;;3.08;;
6372;SDS011;3219;51.362;7.074;2023-04-25T08:43:16;8.02;;;2.45;;
6372;SDS011;3219;51.362;7.074;2023-04-25T08:45:45;6.72;;;2.13;;
6372;SDS011;3219;51.362;7.074;2023-04-25T08:48:14;7.13;;;2.05;;
6372;SDS011;3219;51.362;7.074;2023-04-25T08:50:44;5.78;;;2.75;;
6372;SDS011;3219;51.362;7.074;2023-04-25T08:53:14;8.65;;;2.33;;
6372;SDS011;3219;51.362;7.074;2023-04-25T08:55:43;5.45;;;2.03;;
6372;SDS011;3219;51.362;7.074;2023-04-25T08:58:12;6.78;;;1.70;;
6372;SDS011;3219;51.362;7.074;2023-04-25T09:00:39;5.82;;;2.05;;
6372;SDS011;3219;51.362;7.074;2023-04-25T09:03:06;6.40;;;1.52;;
6372;SDS011;3219;51.362;7.074;2023-04-25T09:05:34;4.38;;;1.80;;
6372;SDS011;3219;51.362;7.074;2023-04-25T09:08:01;7.25;;;1.92;;
6372;SDS011;3219;51.362;7.074;2023-04-25T09:10:28;4.50;;;1.67;;
6372;SDS011;3219;51.362;7.074;2023-04-25T09:13:05;7.93;;;2.15;;
6372;SDS011;3219;51.362;7.074;2023-04-25T09:15:34;7.75;;;2.55;;
6372;SDS011;3219;51.362;7.074;2023-04-25T09:18:13;5.72;;;2.10;;
6372;SDS011;3219;51.362;7.074;2023-04-25T09:20:42;9.50;;;2.30;;
6372;SDS011;3219;51.362;7.074;2023-04-25T09:25:37;5.95;;;3.00;;
6372;SDS011;3219;51.362;7.074;2023-04-25T09:28:05;6.25;;;1.95;;
6372;SDS011;3219;51.362;7.074;2023-04-25T09:30:33;5.93;;;1.75;;
6372;SDS011;3219;51.362;7.074;2023-04-25T09:33:04;5.30;;;2.78;;
6372;SDS011;3219;51.362;7.074;2023-04-25T09:35:35;5.57;;;2.30;;
6372;SDS011;3219;51.362;7.074;2023-04-25T09:38:08;5.95;;;1.58;;
6372;SDS011;3219;51.362;7.074;2023-04-25T09:40:38;5.90;;;2.67;;
6372;SDS011;3219;51.362;7.074;2023-04-25T09:43:08;3.72;;;1.23;;
6372;SDS011;3219;51.362;7.074;2023-04-25T09:45:40;7.47;;;2.33;;
6372;SDS011;3219;51.362;7.074;2023-04-25T09:48:10;7.68;;;2.33;;
6372;SDS011;3219;51.362;7.074;2023-04-25T09:50:37;7.50;;;1.80;;
6372;SDS011;3219;51.362;7.074;2023-04-25T09:53:05;7.97;;;2.35;;
6372;SDS011;3219;51.362;7.074;2023-04-25T09:55:34;7.18;;;2.30;;
6372;SDS011;3219;51.362;7.074;2023-04-25T09:58:03;4.28;;;1.88;;
6372;SDS011;3219;51.362;7.074;2023-04-25T10:02:58;2.75;;;1.52;;
6372;SDS011;3219;51.362;7.074;2023-04-25T10:05:26;9.70;;;2.33;;
6372;SDS011;3219;51.362;7.074;2023-04-25T10:07:55;6.30;;;2.22;;
6372;SDS011;3219;51.362;7.074;2023-04-25T10:10:22;5.35;;;2.05;;
6372;SDS011;3219;51.362;7.074;2023-04-25T10:12:54;5.53;;;2.13;;
6372;SDS011;3219;51.362;7.074;2023-04-25T10:15:21;5.22;;;2.03;;
6372;SDS011;3219;51.362;7.074;2023-04-25T10:17:48;6.82;;;2.00;;
6372;SDS011;3219;51.362;7.074;2023-04-25T10:20:16;5.15;;;2.40;;
6372;SDS011;3219;51.362;7.074;2023-04-25T10:22:44;2.72;;;1.88;;
6372;SDS011;3219;51.362;7.074;2023-04-25T10:25:13;5.88;;;1.63;;
6372;SDS011;3219;51.362;7.074;2023-04-25T10:27:40;4.82;;;1.77;;
6372;SDS011;3219;51.362;7.074;2023-04-25T10:30:09;6.63;;;1.95;;
6372;SDS011;3219;51.362;7.074;2023-04-25T10:32:41;4.10;;;1.90;;
6372;SDS011;3219;51.362;7.074;2023-04-25T10:35:12;5.30;;;1.63;;
6372;SDS011;3219;51.362;7.074;2023-04-25T10:40:25;4.50;;;1.75;;
6372;SDS011;3219;51.362;7.074;2023-04-25T10:42:53;4.57;;;1.67;;
6372;SDS011;3219;51.362;7.074;2023-04-25T10:45:21;2.95;;;1.38;;
6372;SDS011;3219;51.362;7.074;2023-04-25T10:47:48;4.60;;;1.85;;
6372;SDS011;3219;51.362;7.074;2023-04-25T10:50:15;5.57;;;2.15;;
6372;SDS011;3219;51.362;7.074;2023-04-25T10:52:42;6.47;;;1.65;;
6372;SDS011;3219;51.362;7.074;2023-04-25T10:55:09;4.63;;;1.83;;
6372;SDS011;3219;51.362;7.074;2023-04-25T10:57:37;4.47;;;1.55;;
6372;SDS011;3219;51.362;7.074;2023-04-25T11:00:05;5.28;;;1.42;;
6372;SDS011;3219;51.362;7.074;2023-04-25T11:02:45;5.22;;;1.58;;
6372;SDS011;3219;51.362;7.074;2023-04-25T11:05:23;4.50;;;1.88;;
6372;SDS011;3219;51.362;7.074;2023-04-25T11:07:58;5.57;;;2.03;;
6372;SDS011;3219;51.362;7.074;2023-04-25T11:10:26;3.03;;;1.40;;
6372;SDS011;3219;51.362;7.074;2023-04-25T11:12:53;3.50;;;1.65;;
6372;SDS011;3219;51.362;7.074;2023-04-25T11:15:20;3.60;;;1.02;;
6372;SDS011;3219;51.362;7.074;2023-04-25T11:17:48;3.70;;;1.65;;
6372;SDS011;3219;51.362;7.074;2023-04-25T11:20:16;3.67;;;1.48;;
6372;SDS011;3219;51.362;7.074;2023-04-25T11:22:44;6.90;;;1.88;;
6372;SDS011;3219;51.362;7.074;2023-04-25T11:25:12;6.00;;;1.90;;
6372;SDS011;3219;51.362;7.074;2023-04-25T11:27:50;5.03;;;1.70;;
6372;SDS011;3219;51.362;7.074;2023-04-25T11:30:17;5.55;;;2.03;;
6372;SDS011;3219;51.362;7.074;2023-04-25T11:32:45;4.07;;;1.55;;
6372;SDS011;3219;51.362;7.074;2023-04-25T11:35:15;3.92;;;1.63;;
6372;SDS011;3219;51.362;7.074;2023-04-25T11:37:43;5.72;;;1.90;;
6372;SDS011;3219;51.362;7.074;2023-04-25T11:40:10;5.25;;;2.17;;
6372;SDS011;3219;51.362;7.074;2023-04-25T11:42:38;2.47;;;1.88;;
6372;SDS011;3219;51.362;7.074;2023-04-25T11:45:05;5.15;;;2.25;;
6372;SDS011;3219;51.362;7.074;2023-04-25T11:47:33;4.18;;;1.92;;
6372;SDS011;3219;51.362;7.074;2023-04-25T11:50:02;5.38;;;1.15;;
6372;SDS011;3219;51.362;7.074;2023-04-25T11:52:37;3.72;;;1.65;;
6372;SDS011;3219;51.362;7.074;2023-04-25T11:55:05;3.38;;;1.73;;
6372;SDS011;3219;51.362;7.074;2023-04-25T11:57:33;4.43;;;2.28;;
6372;SDS011;3219;51.362;7.074;2023-04-25T12:00:10;4.45;;;1.80;;
6372;SDS011;3219;51.362;7.074;2023-04-25T12:02:41;6.65;;;1.55;;
6372;SDS011;3219;51.362;7.074;2023-04-25T12:05:10;5.18;;;2.00;;
6372;SDS011;3219;51.362;7.074;2023-04-25T12:07:39;3.95;;;1.52;;
6372;SDS011;3219;51.362;7.074;2023-04-25T12:10:06;4.95;;;1.67;;
6372;SDS011;3219;51.362;7.074;2023-04-25T12:12:34;5.63;;;1.40;;
6372;SDS011;3219;51.362;7.074;2023-04-25T12:15:08;5.25;;;1.88;;
6372;SDS011;3219;51.362;7.074;2023-04-25T12:17:36;4.38;;;1.35;;
6372;SDS011;3219;51.362;7.074;2023-04-25T12:20:08;3.22;;;2.03;;
6372;SDS011;3219;51.362;7.074;2023-04-25T12:22:40;3.33;;;2.38;;
6372;SDS011;3219;51.362;7.074;2023-04-25T12:25:09;4.07;;;1.70;;
6372;SDS011;3219;51.362;7.074;2023-04-25T12:27:37;4.43;;;1.98;;
6372;SDS011;3219;51.362;7.074;2023-04-25T12:30:05;5.95;;;3.15;;
6372;SDS011;3219;51.362;7.074;2023-04-25T12:32:33;7.63;;;2.72;;
6372;SDS011;3219;51.362;7.074;2023-04-25T12:35:00;6.75;;;2.15;;
6372;SDS011;3219;51.362;7.074;2023-04-25T12:37:29;3.33;;;1.92;;
6372;SDS011;3219;51.362;7.074;2023-04-25T12:39:56;5.35;;;2.58;;
6372;SDS011;3219;51.362;7.074;2023-04-25T12:42:23;3.75;;;2.10;;
6372;SDS011;3219;51.362;7.074;2023-04-25T12:44:50;3.33;;;1.63;;
6372;SDS011;3219;51.362;7.074;2023-04-25T12:47:17;4.20;;;2.42;;
6372;SDS011;3219;51.362;7.074;2023-04-25T12:49:43;6.10;;;2.75;;
6372;SDS011;3219;51.362;7.074;2023-04-25T12:52:10;4.93;;;1.52;;
6372;SDS011;3219;51.362;7.074;2023-04-25T12:54:38;4.13;;;2.45;;
6372;SDS011;3219;51.362;7.074;2023-04-25T12:57:05;3.35;;;1.48;;
6372;SDS011;3219;51.362;7.074;2023-04-25T12:59:33;5.20;;;1.70;;
6372;SDS011;3219;51.362;7.074;2023-04-25T13:02:00;4.68;;;2.92;;
6372;SDS011;3219;51.362;7.074;2023-04-25T13:04:28;3.88;;;1.65;;
6372;SDS011;3219;51.362;7.074;2023-04-25T13:06:54;4.57;;;2.03;;
6372;SDS011;3219;51.362;7.074;2023-04-25T13:09:21;3.70;;;1.58;;
6372;SDS011;3219;51.362;7.074;2023-04-25T13:11:50;2.35;;;1.30;;
6372;SDS011;3219;51.362;7.074;2023-04-25T13:14:17;6.15;;;2.00;;
6372;SDS011;3219;51.362;7.074;2023-04-25T13:16:43;3.97;;;1.70;;
6372;SDS011;3219;51.362;7.074;2023-04-25T13:19:11;3.67;;;2.70;;
6372;SDS011;3219;51.362;7.074;2023-04-25T13:21:38;3.88;;;1.45;;
6372;SDS011;3219;51.362;7.074;2023-04-25T13:24:05;3.40;;;1.88;;
6372;SDS011;3219;51.362;7.074;2023-04-25T13:26:34;3.30;;;1.77;;
6372;SDS011;3219;51.362;7.074;2023-04-25T13:29:02;4.95;;;1.60;;
6372;SDS011;3219;51.362;7.074;2023-04-25T13:31:29;5.93;;;2.47;;
6372;SDS011;3219;51.362;7.074;2023-04-25T13:33:57;2.65;;;1.58;;
6372;SDS011;3219;51.362;7.074;2023-04-25T13:36:24;4.53;;;1.80;;
6372;SDS011;3219;51.362;7.074;2023-04-25T13:38:52;4.00;;;1.83;;
6372;SDS011;3219;51.362;7.074;2023-04-25T13:41:20;4.63;;;1.85;;
6372;SDS011;3219;51.362;7.074;2023-04-25T13:43:47;4.63;;;1.45;;
6372;SDS011;3219;51.362;7.074;2023-04-25T13:46:15;3.17;;;1.83;;
6372;SDS011;3219;51.362;7.074;2023-04-25T13:48:42;4.05;;;1.52;;
6372;SDS011;3219;51.362;7.074;2023-04-25T13:51:13;4.55;;;1.50;;
6372;SDS011;3219;51.362;7.074;2023-04-25T13:53:41;2.75;;;1.33;;
6372;SDS011;3219;51.362;7.074;2023-04-25T13:56:09;2.60;;;2.38;;
6372;SDS011;3219;51.362;7.074;2023-04-25T13:58:37;3.33;;;1.48;;
6372;SDS011;3219;51.362;7.074;2023-04-25T14:01:04;2.67;;;1.90;;
6372;SDS011;3219;51.362;7.074;2023-04-25T14:03:32;2.00;;;1.30;;
6372;SDS011;3219;51.362;7.074;2023-04-25T14:05:59;4.47;;;3.88;;
6372;SDS011;3219;51.362;7.074;2023-04-25T14:08:26;4.07;;;1.90;;
6372;SDS011;3219;51.362;7.074;2023-04-25T14:10:53;2.75;;;1.10;;
6372;SDS011;3219;51.362;7.074;2023-04-25T14:13:20;4.13;;;1.70;;
6372;SDS011;3219;51.362;7.074;2023-04-25T14:15:48;4.35;;;1.65;;
6372;SDS011;3219;51.362;7.074;2023-04-25T14:18:16;4.75;;;2.10;;
6372;SDS011;3219;51.362;7.074;2023-04-25T14:20:45;2.88;;;1.63;;
6372;SDS011;3219;51.362;7.074;2023-04-25T14:23:12;4.30;;;2.33;;
6372;SDS011;3219;51.362;7.074;2023-04-25T14:25:39;3.55;;;1.63;;
6372;SDS011;3219;51.362;7.074;2023-04-25T14:28:06;2.95;;;1.77;;
6372;SDS011;3219;51.362;7.074;2023-04-25T14:30:33;3.50;;;1.70;;
6372;SDS011;3219;51.362;7.074;2023-04-25T14:33:00;3.67;;;1.38;;
6372;SDS011;3219;51.362;7.074;2023-04-25T14:35:27;3.97;;;2.05;;
6372;SDS011;3219;51.362;7.074;2023-04-25T14:37:55;2.92;;;1.45;;
6372;SDS011;3219;51.362;7.074;2023-04-25T14:40:22;3.42;;;2.70;;
6372;SDS011;3219;51.362;7.074;2023-04-25T14:42:50;5.88;;;1.75;;
6372;SDS011;3219;51.362;7.074;2023-04-25T14:45:17;4.25;;;1.77;;
6372;SDS011;3219;51.362;7.074;2023-04-25T14:47:44;3.78;;;1.02;;
6372;SDS011;3219;51.362;7.074;2023-04-25T14:50:11;4.95;;;1.52;;
6372;SDS011;3219;51.362;7.074;2023-04-25T14:52:38;3.65;;;1.17;;
6372;SDS011;3219;51.362;7.074;2023-04-25T14:55:07;3.85;;;2.33;;
6372;SDS011;3219;51.362;7.074;2023-04-25T14:57:34;2.15;;;1.63;;
6372;SDS011;3219;51.362;7.074;2023-04-25T15:00:01;5.85;;;2.20;;
6372;SDS011;3219;51.362;7.074;2023-04-25T15:02:30;3.33;;;2.30;;
6372;SDS011;3219;51.362;7.074;2023-04-25T15:04:57;4.95;;;1.88;;
6372;SDS011;3219;51.362;7.074;2023-04-25T15:07:24;4.32;;;1.80;;
6372;SDS011;3219;51.362;7.074;2023-04-25T15:09:51;5.47;;;1.98;;
6372;SDS011;3219;51.362;7.074;2023-04-25T15:12:22;2.72;;;1.55;;
6372;SDS011;3219;51.362;7.074;2023-04-25T15:14:51;4.95;;;1.38;;
6372;SDS011;3219;51.362;7.074;2023-04-25T15:17:17;8.40;;;2.58;;
6372;SDS011;3219;51.362;7.074;2023-04-25T15:19:44;3.22;;;2.08;;
6372;SDS011;3219;51.362;7.074;2023-04-25T15:22:11;6.25;;;2.50;;